KCAK/CAK METAR and TAF weather

Enter ICAO airport designator
Station Type Date Time Source
KCAK METAR 2021/07/29 18:51 UTC NOAA

KCAK 291851Z 24010KT 10SM SCT042 BKN220 28/21 A2986 RMK AO2 SLP103 T02780211


Station Type Date Time Source
KCAK Decoded METAR 2021/07/29 18:51 UTC NOAA

AKRON-CANTON REGIONAL AIRPORT , OH, United States (KCAK) 40-55N 081-27W 377M
Jul 29, 2021 - 02:51 PM EDT / 2021.07.29 1851 UTC
Wind: from the WSW (240 degrees) at 12 MPH (10 KT):0
Visibility: 10 mile(s):0
Sky conditions: mostly cloudy
Temperature: 82.0 F (27.8 C)
Dew Point: 70.0 F (21.1 C)
Relative Humidity: 66%
Pressure (altimeter): 29.86 in. Hg (1011 hPa)
ob: KCAK 291851Z 24010KT 10SM SCT042 BKN220 28/21 A2986 RMK AO2 SLP103 T02780211
cycle: 19

Station Type Date Time Source
KCAK TAF 2021/07/29 18:22 UTC NOAA

TAF KCAK 291700Z 2918/3018 26012G20KT P6SM -SHRA BKN035
TEMPO 2918/2921 4SM TS BR OVC025CB
FM292200 29009KT P6SM VCTS BKN040CB
FM300200 33005KT P6SM SCT050
FM300900 34007KT P6SM BKN025

Example: see airport list